sensor_id;sensor_type;location;lat;lon;timestamp;P1;durP1;ratioP1;P2;durP2;ratioP2
21360;SDS011;10839;43.206;23.550;2023-02-02T00:01:13;2.15;;;1.20;;
21360;SDS011;10839;43.206;23.550;2023-02-02T00:03:39;2.80;;;1.50;;
21360;SDS011;10839;43.206;23.550;2023-02-02T00:06:05;3.05;;;1.30;;
21360;SDS011;10839;43.206;23.550;2023-02-02T00:08:34;2.40;;;1.35;;
21360;SDS011;10839;43.206;23.550;2023-02-02T00:11:00;2.45;;;1.45;;
21360;SDS011;10839;43.206;23.550;2023-02-02T00:13:26;1.85;;;1.20;;
21360;SDS011;10839;43.206;23.550;2023-02-02T00:15:52;2.30;;;1.10;;
21360;SDS011;10839;43.206;23.550;2023-02-02T00:18:18;2.72;;;1.20;;
21360;SDS011;10839;43.206;23.550;2023-02-02T00:20:44;2.85;;;1.00;;
21360;SDS011;10839;43.206;23.550;2023-02-02T00:23:13;2.88;;;1.20;;
21360;SDS011;10839;43.206;23.550;2023-02-02T00:25:40;2.53;;;1.50;;
21360;SDS011;10839;43.206;23.550;2023-02-02T00:28:06;3.38;;;1.45;;
21360;SDS011;10839;43.206;23.550;2023-02-02T00:30:32;4.03;;;1.65;;
21360;SDS011;10839;43.206;23.550;2023-02-02T00:32:58;2.28;;;1.20;;
21360;SDS011;10839;43.206;23.550;2023-02-02T00:35:24;1.38;;;0.90;;
21360;SDS011;10839;43.206;23.550;2023-02-02T00:37:50;2.33;;;1.25;;
21360;SDS011;10839;43.206;23.550;2023-02-02T00:40:16;1.73;;;1.20;;
21360;SDS011;10839;43.206;23.550;2023-02-02T00:42:42;3.35;;;1.25;;
21360;SDS011;10839;43.206;23.550;2023-02-02T00:45:13;3.90;;;1.65;;
21360;SDS011;10839;43.206;23.550;2023-02-02T00:47:45;2.40;;;1.25;;
21360;SDS011;10839;43.206;23.550;2023-02-02T00:50:14;3.30;;;1.52;;
21360;SDS011;10839;43.206;23.550;2023-02-02T00:52:44;3.95;;;1.75;;
21360;SDS011;10839;43.206;23.550;2023-02-02T00:55:11;4.13;;;1.52;;
21360;SDS011;10839;43.206;23.550;2023-02-02T00:57:38;3.13;;;1.35;;
21360;SDS011;10839;43.206;23.550;2023-02-02T01:00:04;2.65;;;1.38;;
21360;SDS011;10839;43.206;23.550;2023-02-02T01:02:33;1.95;;;0.95;;
21360;SDS011;10839;43.206;23.550;2023-02-02T01:05:00;1.92;;;1.10;;
21360;SDS011;10839;43.206;23.550;2023-02-02T01:07:27;1.85;;;1.20;;
21360;SDS011;10839;43.206;23.550;2023-02-02T01:09:55;2.17;;;1.63;;
21360;SDS011;10839;43.206;23.550;2023-02-02T01:12:22;4.13;;;1.40;;
21360;SDS011;10839;43.206;23.550;2023-02-02T01:14:47;2.47;;;1.23;;
21360;SDS011;10839;43.206;23.550;2023-02-02T01:17:13;3.22;;;1.58;;
21360;SDS011;10839;43.206;23.550;2023-02-02T01:19:39;2.78;;;1.40;;
21360;SDS011;10839;43.206;23.550;2023-02-02T01:22:06;3.72;;;1.20;;
21360;SDS011;10839;43.206;23.550;2023-02-02T01:24:33;3.08;;;1.55;;
21360;SDS011;10839;43.206;23.550;2023-02-02T01:26:59;3.95;;;1.67;;
21360;SDS011;10839;43.206;23.550;2023-02-02T01:29:24;4.88;;;2.08;;
21360;SDS011;10839;43.206;23.550;2023-02-02T01:31:50;18.50;;;7.45;;
21360;SDS011;10839;43.206;23.550;2023-02-02T01:34:17;15.25;;;6.25;;
21360;SDS011;10839;43.206;23.550;2023-02-02T01:36:43;10.93;;;4.15;;
21360;SDS011;10839;43.206;23.550;2023-02-02T01:39:09;8.00;;;3.83;;
21360;SDS011;10839;43.206;23.550;2023-02-02T01:41:36;9.40;;;4.22;;
21360;SDS011;10839;43.206;23.550;2023-02-02T01:44:03;11.77;;;5.10;;
21360;SDS011;10839;43.206;23.550;2023-02-02T01:46:34;13.93;;;5.25;;
21360;SDS011;10839;43.206;23.550;2023-02-02T01:49:03;9.90;;;4.00;;
21360;SDS011;10839;43.206;23.550;2023-02-02T01:51:43;12.68;;;5.40;;
21360;SDS011;10839;43.206;23.550;2023-02-02T01:54:15;9.40;;;4.45;;
21360;SDS011;10839;43.206;23.550;2023-02-02T01:56:56;9.00;;;4.10;;
21360;SDS011;10839;43.206;23.550;2023-02-02T01:59:27;7.07;;;3.63;;
21360;SDS011;10839;43.206;23.550;2023-02-02T02:01:54;5.70;;;3.17;;
21360;SDS011;10839;43.206;23.550;2023-02-02T02:04:21;7.32;;;3.33;;
21360;SDS011;10839;43.206;23.550;2023-02-02T02:06:49;6.15;;;3.10;;
21360;SDS011;10839;43.206;23.550;2023-02-02T02:09:18;4.28;;;2.42;;
21360;SDS011;10839;43.206;23.550;2023-02-02T02:11:44;5.28;;;2.30;;
21360;SDS011;10839;43.206;23.550;2023-02-02T02:14:10;5.57;;;2.40;;
21360;SDS011;10839;43.206;23.550;2023-02-02T02:26:35;8.38;;;3.50;;
21360;SDS011;10839;43.206;23.550;2023-02-02T02:29:30;6.90;;;2.83;;
21360;SDS011;10839;43.206;23.550;2023-02-02T02:32:18;9.10;;;3.03;;
21360;SDS011;10839;43.206;23.550;2023-02-02T02:37:34;7.13;;;2.80;;
21360;SDS011;10839;43.206;23.550;2023-02-02T02:40:21;4.55;;;2.30;;
21360;SDS011;10839;43.206;23.550;2023-02-02T02:42:55;4.68;;;1.88;;
21360;SDS011;10839;43.206;23.550;2023-02-02T02:45:25;7.55;;;3.00;;
21360;SDS011;10839;43.206;23.550;2023-02-02T02:47:54;4.78;;;2.70;;
21360;SDS011;10839;43.206;23.550;2023-02-02T02:50:22;4.90;;;1.98;;
21360;SDS011;10839;43.206;23.550;2023-02-02T02:52:50;4.82;;;2.70;;
21360;SDS011;10839;43.206;23.550;2023-02-02T02:55:29;5.40;;;2.63;;
21360;SDS011;10839;43.206;23.550;2023-02-02T03:08:33;5.88;;;2.83;;
21360;SDS011;10839;43.206;23.550;2023-02-02T03:11:00;4.85;;;2.30;;
21360;SDS011;10839;43.206;23.550;2023-02-02T03:13:29;4.80;;;2.70;;
21360;SDS011;10839;43.206;23.550;2023-02-02T03:15:56;19.38;;;8.48;;
21360;SDS011;10839;43.206;23.550;2023-02-02T03:18:24;6.45;;;2.85;;
21360;SDS011;10839;43.206;23.550;2023-02-02T03:20:53;6.47;;;2.47;;
21360;SDS011;10839;43.206;23.550;2023-02-02T03:23:19;7.55;;;3.67;;
21360;SDS011;10839;43.206;23.550;2023-02-02T03:25:45;8.15;;;4.25;;
21360;SDS011;10839;43.206;23.550;2023-02-02T03:28:11;7.47;;;3.95;;
21360;SDS011;10839;43.206;23.550;2023-02-02T03:30:37;8.02;;;4.05;;
21360;SDS011;10839;43.206;23.550;2023-02-02T03:33:06;9.18;;;4.00;;
21360;SDS011;10839;43.206;23.550;2023-02-02T03:35:34;12.35;;;5.03;;
21360;SDS011;10839;43.206;23.550;2023-02-02T03:38:00;8.02;;;3.30;;
21360;SDS011;10839;43.206;23.550;2023-02-02T03:40:26;18.35;;;6.82;;
21360;SDS011;10839;43.206;23.550;2023-02-02T03:42:53;6.05;;;2.80;;
21360;SDS011;10839;43.206;23.550;2023-02-02T03:45:20;8.23;;;3.60;;
21360;SDS011;10839;43.206;23.550;2023-02-02T03:47:46;24.45;;;11.13;;
21360;SDS011;10839;43.206;23.550;2023-02-02T03:50:12;51.78;;;24.00;;
21360;SDS011;10839;43.206;23.550;2023-02-02T03:52:38;19.98;;;8.40;;
21360;SDS011;10839;43.206;23.550;2023-02-02T03:55:04;9.55;;;3.60;;
21360;SDS011;10839;43.206;23.550;2023-02-02T03:57:30;9.00;;;4.47;;
21360;SDS011;10839;43.206;23.550;2023-02-02T03:59:56;8.15;;;4.00;;
21360;SDS011;10839;43.206;23.550;2023-02-02T04:02:22;8.52;;;4.15;;
21360;SDS011;10839;43.206;23.550;2023-02-02T04:04:48;29.70;;;11.18;;
21360;SDS011;10839;43.206;23.550;2023-02-02T04:07:14;38.47;;;13.60;;
21360;SDS011;10839;43.206;23.550;2023-02-02T04:09:40;10.30;;;4.20;;
21360;SDS011;10839;43.206;23.550;2023-02-02T04:12:05;4.97;;;2.05;;
21360;SDS011;10839;43.206;23.550;2023-02-02T04:14:31;3.47;;;1.92;;
21360;SDS011;10839;43.206;23.550;2023-02-02T04:16:57;6.05;;;2.17;;
21360;SDS011;10839;43.206;23.550;2023-02-02T04:19:24;15.55;;;6.78;;
21360;SDS011;10839;43.206;23.550;2023-02-02T04:21:50;18.58;;;8.05;;
21360;SDS011;10839;43.206;23.550;2023-02-02T04:24:17;6.65;;;3.25;;
21360;SDS011;10839;43.206;23.550;2023-02-02T04:26:43;8.98;;;3.83;;
21360;SDS011;10839;43.206;23.550;2023-02-02T04:29:09;3.92;;;2.20;;
21360;SDS011;10839;43.206;23.550;2023-02-02T04:31:35;3.97;;;2.00;;
21360;SDS011;10839;43.206;23.550;2023-02-02T04:34:01;3.67;;;1.90;;
21360;SDS011;10839;43.206;23.550;2023-02-02T04:36:27;3.65;;;1.65;;
21360;SDS011;10839;43.206;23.550;2023-02-02T04:38:53;3.95;;;1.75;;
21360;SDS011;10839;43.206;23.550;2023-02-02T04:41:19;3.28;;;1.70;;
21360;SDS011;10839;43.206;23.550;2023-02-02T04:43:47;3.08;;;1.50;;
21360;SDS011;10839;43.206;23.550;2023-02-02T04:46:13;4.63;;;2.15;;
21360;SDS011;10839;43.206;23.550;2023-02-02T04:48:40;4.47;;;2.53;;
21360;SDS011;10839;43.206;23.550;2023-02-02T04:51:07;8.73;;;3.60;;
21360;SDS011;10839;43.206;23.550;2023-02-02T04:53:35;7.32;;;3.30;;
21360;SDS011;10839;43.206;23.550;2023-02-02T04:56:04;17.23;;;5.82;;
21360;SDS011;10839;43.206;23.550;2023-02-02T04:58:36;8.15;;;4.38;;
21360;SDS011;10839;43.206;23.550;2023-02-02T05:01:13;9.13;;;4.38;;
21360;SDS011;10839;43.206;23.550;2023-02-02T05:03:41;21.67;;;9.75;;
21360;SDS011;10839;43.206;23.550;2023-02-02T05:06:07;12.73;;;5.80;;
21360;SDS011;10839;43.206;23.550;2023-02-02T05:08:34;24.30;;;9.63;;
21360;SDS011;10839;43.206;23.550;2023-02-02T05:11:10;14.20;;;6.75;;
21360;SDS011;10839;43.206;23.550;2023-02-02T05:13:39;10.75;;;4.88;;
21360;SDS011;10839;43.206;23.550;2023-02-02T05:16:05;7.32;;;3.70;;
21360;SDS011;10839;43.206;23.550;2023-02-02T05:18:32;4.10;;;2.30;;
21360;SDS011;10839;43.206;23.550;2023-02-02T05:21:02;6.47;;;2.60;;
21360;SDS011;10839;43.206;23.550;2023-02-02T05:23:28;3.20;;;1.70;;
21360;SDS011;10839;43.206;23.550;2023-02-02T05:25:54;9.38;;;4.25;;
21360;SDS011;10839;43.206;23.550;2023-02-02T05:28:21;3.90;;;2.30;;
21360;SDS011;10839;43.206;23.550;2023-02-02T05:30:48;3.28;;;1.42;;
21360;SDS011;10839;43.206;23.550;2023-02-02T05:33:14;5.20;;;3.15;;
21360;SDS011;10839;43.206;23.550;2023-02-02T05:35:46;5.43;;;2.42;;
21360;SDS011;10839;43.206;23.550;2023-02-02T05:38:13;4.28;;;2.35;;
21360;SDS011;10839;43.206;23.550;2023-02-02T05:40:40;21.05;;;9.60;;
21360;SDS011;10839;43.206;23.550;2023-02-02T05:43:06;11.65;;;6.35;;
21360;SDS011;10839;43.206;23.550;2023-02-02T05:45:31;6.55;;;4.40;;
21360;SDS011;10839;43.206;23.550;2023-02-02T05:47:57;4.28;;;2.05;;
21360;SDS011;10839;43.206;23.550;2023-02-02T05:50:23;2.80;;;1.70;;
21360;SDS011;10839;43.206;23.550;2023-02-02T05:53:00;3.75;;;2.20;;
21360;SDS011;10839;43.206;23.550;2023-02-02T05:55:27;5.28;;;2.63;;
21360;SDS011;10839;43.206;23.550;2023-02-02T05:57:53;9.43;;;4.25;;
21360;SDS011;10839;43.206;23.550;2023-02-02T06:00:19;5.85;;;2.30;;
21360;SDS011;10839;43.206;23.550;2023-02-02T06:02:45;13.88;;;5.10;;
21360;SDS011;10839;43.206;23.550;2023-02-02T06:05:11;21.45;;;6.47;;
21360;SDS011;10839;43.206;23.550;2023-02-02T06:07:36;25.17;;;8.10;;
21360;SDS011;10839;43.206;23.550;2023-02-02T06:10:02;25.48;;;9.68;;
21360;SDS011;10839;43.206;23.550;2023-02-02T06:12:28;12.88;;;4.95;;
21360;SDS011;10839;43.206;23.550;2023-02-02T06:14:54;13.25;;;5.95;;
21360;SDS011;10839;43.206;23.550;2023-02-02T06:17:20;2.55;;;1.50;;
21360;SDS011;10839;43.206;23.550;2023-02-02T06:19:46;7.60;;;2.17;;
21360;SDS011;10839;43.206;23.550;2023-02-02T06:22:12;6.13;;;2.75;;
21360;SDS011;10839;43.206;23.550;2023-02-02T06:24:38;3.47;;;1.85;;
21360;SDS011;10839;43.206;23.550;2023-02-02T06:27:04;5.65;;;2.70;;
21360;SDS011;10839;43.206;23.550;2023-02-02T06:29:30;7.13;;;2.70;;
21360;SDS011;10839;43.206;23.550;2023-02-02T06:31:56;6.10;;;2.45;;
21360;SDS011;10839;43.206;23.550;2023-02-02T06:34:22;4.90;;;2.22;;
21360;SDS011;10839;43.206;23.550;2023-02-02T06:36:48;8.48;;;4.18;;
21360;SDS011;10839;43.206;23.550;2023-02-02T06:39:14;7.93;;;4.10;;
21360;SDS011;10839;43.206;23.550;2023-02-02T06:41:41;7.65;;;3.38;;
21360;SDS011;10839;43.206;23.550;2023-02-02T06:44:11;5.55;;;3.13;;
21360;SDS011;10839;43.206;23.550;2023-02-02T06:46:39;5.32;;;3.00;;
21360;SDS011;10839;43.206;23.550;2023-02-02T06:49:06;8.43;;;5.45;;
21360;SDS011;10839;43.206;23.550;2023-02-02T06:51:32;12.45;;;6.13;;
21360;SDS011;10839;43.206;23.550;2023-02-02T06:53:58;4.95;;;2.97;;
21360;SDS011;10839;43.206;23.550;2023-02-02T06:56:24;9.63;;;5.30;;
21360;SDS011;10839;43.206;23.550;2023-02-02T06:58:49;20.42;;;8.85;;
21360;SDS011;10839;43.206;23.550;2023-02-02T07:01:15;13.15;;;7.90;;
21360;SDS011;10839;43.206;23.550;2023-02-02T07:03:41;14.23;;;7.80;;
21360;SDS011;10839;43.206;23.550;2023-02-02T07:06:14;23.38;;;14.55;;
21360;SDS011;10839;43.206;23.550;2023-02-02T07:08:44;16.63;;;8.70;;
21360;SDS011;10839;43.206;23.550;2023-02-02T07:11:11;6.13;;;4.05;;
21360;SDS011;10839;43.206;23.550;2023-02-02T07:13:38;9.73;;;3.95;;
21360;SDS011;10839;43.206;23.550;2023-02-02T07:16:04;8.52;;;4.43;;
21360;SDS011;10839;43.206;23.550;2023-02-02T07:18:30;15.48;;;9.15;;
21360;SDS011;10839;43.206;23.550;2023-02-02T07:20:59;14.18;;;7.78;;
21360;SDS011;10839;43.206;23.550;2023-02-02T07:23:26;14.05;;;6.88;;
21360;SDS011;10839;43.206;23.550;2023-02-02T07:26:02;8.52;;;4.63;;
21360;SDS011;10839;43.206;23.550;2023-02-02T07:28:33;8.75;;;4.53;;
21360;SDS011;10839;43.206;23.550;2023-02-02T07:31:00;4.00;;;1.75;;
21360;SDS011;10839;43.206;23.550;2023-02-02T07:33:26;3.72;;;2.30;;
21360;SDS011;10839;43.206;23.550;2023-02-02T07:35:52;4.90;;;2.90;;
21360;SDS011;10839;43.206;23.550;2023-02-02T07:38:18;3.65;;;2.33;;
21360;SDS011;10839;43.206;23.550;2023-02-02T07:40:44;3.60;;;2.15;;
21360;SDS011;10839;43.206;23.550;2023-02-02T07:43:10;3.33;;;1.98;;
21360;SDS011;10839;43.206;23.550;2023-02-02T07:45:36;1.42;;;1.05;;
21360;SDS011;10839;43.206;23.550;2023-02-02T07:48:02;2.03;;;1.00;;
21360;SDS011;10839;43.206;23.550;2023-02-02T07:50:28;2.03;;;1.05;;
21360;SDS011;10839;43.206;23.550;2023-02-02T07:52:57;3.05;;;1.10;;
21360;SDS011;10839;43.206;23.550;2023-02-02T07:55:23;1.85;;;0.90;;
21360;SDS011;10839;43.206;23.550;2023-02-02T07:57:52;1.92;;;1.40;;
21360;SDS011;10839;43.206;23.550;2023-02-02T08:00:20;2.85;;;1.73;;
21360;SDS011;10839;43.206;23.550;2023-02-02T08:02:49;3.65;;;1.23;;
21360;SDS011;10839;43.206;23.550;2023-02-02T08:05:15;4.68;;;2.67;;
21360;SDS011;10839;43.206;23.550;2023-02-02T08:07:41;4.82;;;2.00;;
21360;SDS011;10839;43.206;23.550;2023-02-02T08:10:08;3.42;;;1.98;;
21360;SDS011;10839;43.206;23.550;2023-02-02T08:12:34;2.58;;;1.40;;
21360;SDS011;10839;43.206;23.550;2023-02-02T08:15:00;5.25;;;1.42;;
21360;SDS011;10839;43.206;23.550;2023-02-02T08:17:26;2.95;;;1.20;;
21360;SDS011;10839;43.206;23.550;2023-02-02T08:19:52;2.83;;;1.50;;
21360;SDS011;10839;43.206;23.550;2023-02-02T08:22:17;1.90;;;1.08;;
21360;SDS011;10839;43.206;23.550;2023-02-02T08:24:43;7.57;;;2.67;;
21360;SDS011;10839;43.206;23.550;2023-02-02T08:27:09;10.40;;;4.22;;
21360;SDS011;10839;43.206;23.550;2023-02-02T08:29:35;9.57;;;4.00;;
21360;SDS011;10839;43.206;23.550;2023-02-02T08:32:03;8.27;;;3.75;;
21360;SDS011;10839;43.206;23.550;2023-02-02T08:34:29;8.57;;;3.80;;
21360;SDS011;10839;43.206;23.550;2023-02-02T08:36:59;8.48;;;3.80;;
21360;SDS011;10839;43.206;23.550;2023-02-02T08:39:24;10.10;;;4.15;;
21360;SDS011;10839;43.206;23.550;2023-02-02T08:41:53;5.38;;;2.25;;
21360;SDS011;10839;43.206;23.550;2023-02-02T08:44:19;3.78;;;2.00;;
21360;SDS011;10839;43.206;23.550;2023-02-02T08:46:46;1.77;;;1.20;;
21360;SDS011;10839;43.206;23.550;2023-02-02T08:49:12;3.55;;;1.88;;
21360;SDS011;10839;43.206;23.550;2023-02-02T08:51:38;3.42;;;1.70;;
21360;SDS011;10839;43.206;23.550;2023-02-02T08:54:05;2.97;;;1.80;;
21360;SDS011;10839;43.206;23.550;2023-02-02T08:56:30;2.47;;;1.38;;
21360;SDS011;10839;43.206;23.550;2023-02-02T08:58:56;2.25;;;1.42;;
21360;SDS011;10839;43.206;23.550;2023-02-02T09:01:24;3.22;;;1.60;;
21360;SDS011;10839;43.206;23.550;2023-02-02T09:03:52;2.72;;;1.70;;
21360;SDS011;10839;43.206;23.550;2023-02-02T09:06:19;2.33;;;1.42;;
21360;SDS011;10839;43.206;23.550;2023-02-02T09:08:46;2.38;;;1.38;;
21360;SDS011;10839;43.206;23.550;2023-02-02T09:11:13;3.20;;;2.10;;
21360;SDS011;10839;43.206;23.550;2023-02-02T09:13:44;3.95;;;2.70;;
21360;SDS011;10839;43.206;23.550;2023-02-02T09:16:14;3.83;;;2.05;;
21360;SDS011;10839;43.206;23.550;2023-02-02T09:18:41;4.57;;;1.73;;
21360;SDS011;10839;43.206;23.550;2023-02-02T09:21:09;2.28;;;1.58;;
21360;SDS011;10839;43.206;23.550;2023-02-02T09:23:38;3.95;;;2.22;;
21360;SDS011;10839;43.206;23.550;2023-02-02T09:26:13;4.13;;;2.20;;
21360;SDS011;10839;43.206;23.550;2023-02-02T09:28:45;3.55;;;2.05;;
21360;SDS011;10839;43.206;23.550;2023-02-02T09:31:13;7.22;;;3.35;;
21360;SDS011;10839;43.206;23.550;2023-02-02T09:33:40;4.57;;;2.05;;
21360;SDS011;10839;43.206;23.550;2023-02-02T09:36:17;4.97;;;2.65;;
21360;SDS011;10839;43.206;23.550;2023-02-02T09:38:45;6.00;;;2.88;;
21360;SDS011;10839;43.206;23.550;2023-02-02T09:44:15;2.35;;;1.85;;
21360;SDS011;10839;43.206;23.550;2023-02-02T09:47:14;3.63;;;2.30;;
21360;SDS011;10839;43.206;23.550;2023-02-02T09:55:15;7.15;;;2.72;;
21360;SDS011;10839;43.206;23.550;2023-02-02T10:08:57;4.97;;;2.50;;
21360;SDS011;10839;43.206;23.550;2023-02-02T10:11:49;6.50;;;3.53;;
21360;SDS011;10839;43.206;23.550;2023-02-02T10:14:36;5.05;;;2.15;;
21360;SDS011;10839;43.206;23.550;2023-02-02T10:20:23;4.68;;;2.40;;
21360;SDS011;10839;43.206;23.550;2023-02-02T10:28:33;12.40;;;5.00;;
21360;SDS011;10839;43.206;23.550;2023-02-02T10:31:03;7.03;;;3.97;;
21360;SDS011;10839;43.206;23.550;2023-02-02T10:33:38;4.13;;;2.65;;
21360;SDS011;10839;43.206;23.550;2023-02-02T10:36:20;4.20;;;2.45;;
21360;SDS011;10839;43.206;23.550;2023-02-02T10:44:40;4.85;;;3.20;;
21360;SDS011;10839;43.206;23.550;2023-02-02T10:47:29;6.00;;;3.40;;
21360;SDS011;10839;43.206;23.550;2023-02-02T10:50:06;4.75;;;2.70;;
21360;SDS011;10839;43.206;23.550;2023-02-02T10:52:39;31.27;;;15.65;;
21360;SDS011;10839;43.206;23.550;2023-02-02T11:03:07;10.40;;;4.30;;
21360;SDS011;10839;43.206;23.550;2023-02-02T11:05:35;10.07;;;4.50;;
21360;SDS011;10839;43.206;23.550;2023-02-02T11:08:27;6.65;;;2.30;;
21360;SDS011;10839;43.206;23.550;2023-02-02T11:16:17;5.63;;;2.83;;
21360;SDS011;10839;43.206;23.550;2023-02-02T11:18:45;5.45;;;2.60;;
21360;SDS011;10839;43.206;23.550;2023-02-02T11:21:22;6.25;;;2.15;;
21360;SDS011;10839;43.206;23.550;2023-02-02T11:24:37;8.20;;;3.70;;
21360;SDS011;10839;43.206;23.550;2023-02-02T11:26:51;7.70;;;3.60;;
21360;SDS011;10839;43.206;23.550;2023-02-02T11:30:09;4.30;;;1.90;;
21360;SDS011;10839;43.206;23.550;2023-02-02T11:37:50;7.15;;;2.70;;
21360;SDS011;10839;43.206;23.550;2023-02-02T11:40:34;4.68;;;2.50;;
21360;SDS011;10839;43.206;23.550;2023-02-02T11:43:04;8.15;;;2.40;;
21360;SDS011;10839;43.206;23.550;2023-02-02T11:45:43;9.35;;;4.05;;
21360;SDS011;10839;43.206;23.550;2023-02-02T11:48:18;6.13;;;3.10;;
21360;SDS011;10839;43.206;23.550;2023-02-02T11:50:47;3.93;;;2.20;;
21360;SDS011;10839;43.206;23.550;2023-02-02T11:53:24;7.20;;;2.33;;
21360;SDS011;10839;43.206;23.550;2023-02-02T11:55:53;4.63;;;2.40;;
21360;SDS011;10839;43.206;23.550;2023-02-02T12:00:53;10.70;;;3.85;;
21360;SDS011;10839;43.206;23.550;2023-02-02T12:05:52;8.95;;;4.00;;
21360;SDS011;10839;43.206;23.550;2023-02-02T12:08:18;10.50;;;4.65;;
21360;SDS011;10839;43.206;23.550;2023-02-02T12:26:56;6.10;;;3.85;;
21360;SDS011;10839;43.206;23.550;2023-02-02T12:29:55;7.25;;;3.70;;
21360;SDS011;10839;43.206;23.550;2023-02-02T12:32:56;15.73;;;8.35;;
21360;SDS011;10839;43.206;23.550;2023-02-02T12:35:47;27.23;;;13.98;;
21360;SDS011;10839;43.206;23.550;2023-02-02T12:41:41;14.80;;;7.53;;
21360;SDS011;10839;43.206;23.550;2023-02-02T12:44:48;11.95;;;6.22;;
21360;SDS011;10839;43.206;23.550;2023-02-02T12:55:16;7.10;;;3.10;;
21360;SDS011;10839;43.206;23.550;2023-02-02T12:57:52;6.47;;;2.63;;
21360;SDS011;10839;43.206;23.550;2023-02-02T13:03:00;7.50;;;3.80;;
21360;SDS011;10839;43.206;23.550;2023-02-02T13:08:26;6.75;;;3.90;;
21360;SDS011;10839;43.206;23.550;2023-02-02T13:11:08;2.50;;;1.52;;
21360;SDS011;10839;43.206;23.550;2023-02-02T13:13:58;9.88;;;4.68;;
21360;SDS011;10839;43.206;23.550;2023-02-02T13:16:48;36.30;;;17.48;;
21360;SDS011;10839;43.206;23.550;2023-02-02T13:21:56;10.18;;;5.18;;
21360;SDS011;10839;43.206;23.550;2023-02-02T13:24:32;5.70;;;3.50;;
21360;SDS011;10839;43.206;23.550;2023-02-02T13:27:03;5.93;;;3.45;;
21360;SDS011;10839;43.206;23.550;2023-02-02T13:29:50;2.60;;;1.60;;
21360;SDS011;10839;43.206;23.550;2023-02-02T13:37:34;1.95;;;1.20;;
21360;SDS011;10839;43.206;23.550;2023-02-02T13:45:51;2.45;;;1.30;;
21360;SDS011;10839;43.206;23.550;2023-02-02T13:59:53;19.50;;;9.25;;
21360;SDS011;10839;43.206;23.550;2023-02-02T14:02:52;7.00;;;3.33;;
21360;SDS011;10839;43.206;23.550;2023-02-02T14:08:05;2.88;;;1.40;;
21360;SDS011;10839;43.206;23.550;2023-02-02T14:13:20;4.72;;;2.22;;
21360;SDS011;10839;43.206;23.550;2023-02-02T14:16:22;5.78;;;3.58;;
21360;SDS011;10839;43.206;23.550;2023-02-02T14:19:03;12.07;;;5.60;;
21360;SDS011;10839;43.206;23.550;2023-02-02T14:23:59;14.88;;;6.70;;
21360;SDS011;10839;43.206;23.550;2023-02-02T14:26:42;7.70;;;4.50;;
21360;SDS011;10839;43.206;23.550;2023-02-02T14:32:00;7.80;;;3.80;;
21360;SDS011;10839;43.206;23.550;2023-02-02T14:34:46;6.13;;;3.95;;
21360;SDS011;10839;43.206;23.550;2023-02-02T14:45:40;17.02;;;8.15;;
21360;SDS011;10839;43.206;23.550;2023-02-02T14:48:15;64.65;;;29.45;;
21360;SDS011;10839;43.206;23.550;2023-02-02T14:50:47;77.13;;;35.38;;
21360;SDS011;10839;43.206;23.550;2023-02-02T14:53:29;22.60;;;12.45;;
21360;SDS011;10839;43.206;23.550;2023-02-02T15:03:47;18.20;;;10.02;;
21360;SDS011;10839;43.206;23.550;2023-02-02T15:06:36;17.75;;;9.73;;
21360;SDS011;10839;43.206;23.550;2023-02-02T15:14:30;16.02;;;8.73;;
21360;SDS011;10839;43.206;23.550;2023-02-02T15:20:12;15.38;;;8.43;;
21360;SDS011;10839;43.206;23.550;2023-02-02T15:23:04;17.98;;;8.80;;
21360;SDS011;10839;43.206;23.550;2023-02-02T15:25:48;20.52;;;10.25;;
21360;SDS011;10839;43.206;23.550;2023-02-02T15:28:28;25.38;;;11.30;;
21360;SDS011;10839;43.206;23.550;2023-02-02T15:33:36;25.95;;;12.52;;
21360;SDS011;10839;43.206;23.550;2023-02-02T15:36:22;25.92;;;12.02;;
21360;SDS011;10839;43.206;23.550;2023-02-02T15:38:54;20.40;;;10.50;;
21360;SDS011;10839;43.206;23.550;2023-02-02T15:41:33;18.77;;;10.80;;
21360;SDS011;10839;43.206;23.550;2023-02-02T15:44:19;14.40;;;8.00;;
21360;SDS011;10839;43.206;23.550;2023-02-02T15:46:51;18.48;;;9.82;;
21360;SDS011;10839;43.206;23.550;2023-02-02T15:51:48;21.55;;;11.98;;
21360;SDS011;10839;43.206;23.550;2023-02-02T15:54:23;45.60;;;22.02;;
21360;SDS011;10839;43.206;23.550;2023-02-02T15:56:51;51.25;;;22.92;;
21360;SDS011;10839;43.206;23.550;2023-02-02T15:59:19;39.55;;;18.83;;
21360;SDS011;10839;43.206;23.550;2023-02-02T16:01:50;26.15;;;14.82;;
21360;SDS011;10839;43.206;23.550;2023-02-02T16:04:25;15.32;;;9.32;;
21360;SDS011;10839;43.206;23.550;2023-02-02T16:06:58;11.27;;;7.22;;
21360;SDS011;10839;43.206;23.550;2023-02-02T16:09:27;9.45;;;5.78;;
21360;SDS011;10839;43.206;23.550;2023-02-02T16:11:58;8.48;;;5.70;;
21360;SDS011;10839;43.206;23.550;2023-02-02T16:14:26;12.85;;;6.60;;
21360;SDS011;10839;43.206;23.550;2023-02-02T16:16:53;12.80;;;7.13;;
21360;SDS011;10839;43.206;23.550;2023-02-02T16:19:22;10.98;;;6.60;;
21360;SDS011;10839;43.206;23.550;2023-02-02T16:21:52;17.00;;;9.00;;
21360;SDS011;10839;43.206;23.550;2023-02-02T16:24:26;18.55;;;9.80;;
21360;SDS011;10839;43.206;23.550;2023-02-02T16:26:56;42.53;;;14.63;;
21360;SDS011;10839;43.206;23.550;2023-02-02T16:29:23;49.08;;;19.63;;
21360;SDS011;10839;43.206;23.550;2023-02-02T16:31:52;53.85;;;21.02;;
21360;SDS011;10839;43.206;23.550;2023-02-02T16:37:10;10.95;;;6.22;;
21360;SDS011;10839;43.206;23.550;2023-02-02T16:39:37;14.32;;;7.15;;
21360;SDS011;10839;43.206;23.550;2023-02-02T16:42:09;11.95;;;5.85;;
21360;SDS011;10839;43.206;23.550;2023-02-02T16:44:52;29.63;;;13.82;;
21360;SDS011;10839;43.206;23.550;2023-02-02T16:52:47;16.38;;;6.43;;
21360;SDS011;10839;43.206;23.550;2023-02-02T16:55:16;11.27;;;4.97;;
21360;SDS011;10839;43.206;23.550;2023-02-02T16:57:44;7.25;;;3.47;;
21360;SDS011;10839;43.206;23.550;2023-02-02T17:00:25;7.95;;;3.25;;
21360;SDS011;10839;43.206;23.550;2023-02-02T17:03:04;6.80;;;2.63;;
21360;SDS011;10839;43.206;23.550;2023-02-02T17:05:50;31.80;;;11.95;;
21360;SDS011;10839;43.206;23.550;2023-02-02T17:08:33;19.83;;;8.45;;
21360;SDS011;10839;43.206;23.550;2023-02-02T17:11:03;14.98;;;7.05;;
21360;SDS011;10839;43.206;23.550;2023-02-02T17:13:39;28.50;;;14.45;;
21360;SDS011;10839;43.206;23.550;2023-02-02T17:16:08;25.70;;;12.20;;
21360;SDS011;10839;43.206;23.550;2023-02-02T17:18:36;29.33;;;11.45;;
21360;SDS011;10839;43.206;23.550;2023-02-02T17:21:02;22.48;;;11.82;;
21360;SDS011;10839;43.206;23.550;2023-02-02T17:23:32;27.40;;;10.43;;
21360;SDS011;10839;43.206;23.550;2023-02-02T17:26:01;15.88;;;7.10;;
21360;SDS011;10839;43.206;23.550;2023-02-02T17:28:28;12.75;;;5.05;;
21360;SDS011;10839;43.206;23.550;2023-02-02T17:31:07;15.90;;;6.40;;
21360;SDS011;10839;43.206;23.550;2023-02-02T17:33:35;13.55;;;5.25;;
21360;SDS011;10839;43.206;23.550;2023-02-02T17:36:02;10.00;;;4.30;;
21360;SDS011;10839;43.206;23.550;2023-02-02T17:38:29;6.07;;;3.03;;
21360;SDS011;10839;43.206;23.550;2023-02-02T17:41:00;4.45;;;1.95;;
21360;SDS011;10839;43.206;23.550;2023-02-02T17:43:30;2.97;;;1.63;;
21360;SDS011;10839;43.206;23.550;2023-02-02T17:45:58;3.78;;;2.05;;
21360;SDS011;10839;43.206;23.550;2023-02-02T17:48:24;3.67;;;2.05;;
21360;SDS011;10839;43.206;23.550;2023-02-02T17:50:50;4.63;;;1.02;;
21360;SDS011;10839;43.206;23.550;2023-02-02T17:53:19;1.30;;;0.88;;
21360;SDS011;10839;43.206;23.550;2023-02-02T17:55:46;4.10;;;1.73;;